createdAt,value
2022-10-06T00:01:35.689Z,1.20
2022-10-06T00:04:06.218Z,1.10
2022-10-06T00:06:36.616Z,1.23
2022-10-06T00:09:04.172Z,1.00
2022-10-06T00:11:31.734Z,1.20
2022-10-06T00:13:59.196Z,1.07
2022-10-06T00:16:26.989Z,1.57
2022-10-06T00:18:54.014Z,1.30
2022-10-06T00:21:21.604Z,1.20
2022-10-06T00:23:49.549Z,1.10
2022-10-06T01:31:20.428Z,1.90
2022-10-06T01:33:52.976Z,2.30
2022-10-06T01:36:21.179Z,2.10
2022-10-06T01:38:49.515Z,1.73
2022-10-06T01:41:19.057Z,2.43
2022-10-06T01:43:46.198Z,2.20
2022-10-06T01:46:13.710Z,2.00
2022-10-06T01:48:44.389Z,2.30
2022-10-06T01:51:19.302Z,3.17
2022-10-06T01:53:46.630Z,2.03
2022-10-06T01:56:14.208Z,2.20
2022-10-06T01:58:44.744Z,2.63
2022-10-06T02:01:13.370Z,2.03
2022-10-06T02:03:41.765Z,2.13
2022-10-06T02:06:10.475Z,1.90
2022-10-06T02:35:28.833Z,2.30
2022-10-06T02:37:56.017Z,2.80
2022-10-06T02:40:23.126Z,2.67
2022-10-06T02:42:53.010Z,2.50
2022-10-06T02:45:19.845Z,2.27
2022-10-06T02:47:46.895Z,2.50
2022-10-06T02:50:13.983Z,2.30
2022-10-06T02:52:42.958Z,2.83
2022-10-06T02:55:10.636Z,3.50
2022-10-06T02:57:37.642Z,2.57
2022-10-06T03:00:07.434Z,2.30
2022-10-06T03:02:34.572Z,2.23
2022-10-06T03:05:01.598Z,3.07
2022-10-06T03:07:28.627Z,2.63
2022-10-06T03:09:55.624Z,2.43
2022-10-06T03:12:23.331Z,2.40
2022-10-06T03:14:50.278Z,3.13
2022-10-06T03:17:17.145Z,2.70
2022-10-06T03:19:44.129Z,2.70
2022-10-06T03:22:11.404Z,2.43
2022-10-06T03:24:38.451Z,2.87
2022-10-06T03:27:05.335Z,2.30
2022-10-06T03:29:32.438Z,3.03
2022-10-06T03:31:59.499Z,2.73
2022-10-06T03:34:26.539Z,2.57
2022-10-06T03:36:53.391Z,2.77
2022-10-06T03:39:20.309Z,2.97
2022-10-06T03:41:47.200Z,2.37
2022-10-06T03:44:14.044Z,2.63
2022-10-06T03:46:41.251Z,3.20
2022-10-06T03:49:08.498Z,2.77
2022-10-06T03:51:38.574Z,2.50
2022-10-06T03:54:06.080Z,2.90
2022-10-06T03:56:35.988Z,2.33
2022-10-06T03:59:05.870Z,2.67
2022-10-06T04:01:35.837Z,2.97
2022-10-06T04:04:04.468Z,2.90
2022-10-06T04:06:34.675Z,2.53
2022-10-06T04:09:01.698Z,2.70
2022-10-06T04:11:31.507Z,2.53
2022-10-06T04:14:04.072Z,2.60
2022-10-06T04:16:33.450Z,2.67
2022-10-06T04:19:04.850Z,2.93
2022-10-06T04:21:33.483Z,1.93
2022-10-06T04:24:00.757Z,2.90
2022-10-06T04:26:33.246Z,1.90
2022-10-06T04:29:00.861Z,2.93
2022-10-06T04:31:37.261Z,2.60
2022-10-06T04:34:05.679Z,2.70
2022-10-06T04:36:40.036Z,2.50
2022-10-06T04:39:11.333Z,2.73
2022-10-06T04:41:41.196Z,3.07
2022-10-06T04:44:09.032Z,2.77
2022-10-06T04:46:44.821Z,3.20
2022-10-06T04:49:18.923Z,2.57
2022-10-06T04:51:47.841Z,2.77
2022-10-06T04:54:14.710Z,2.60
2022-10-06T04:56:41.626Z,2.50
2022-10-06T04:59:08.554Z,2.93
2022-10-06T05:01:37.012Z,2.43
2022-10-06T05:04:06.320Z,2.57
2022-10-06T05:06:38.470Z,3.47
2022-10-06T05:09:09.049Z,2.67
2022-10-06T05:11:36.614Z,3.10
2022-10-06T05:14:03.878Z,2.77
2022-10-06T05:16:31.905Z,2.77
2022-10-06T05:18:59.421Z,2.77
2022-10-06T05:21:28.787Z,2.60
2022-10-06T05:23:55.965Z,2.87
2022-10-06T05:26:25.283Z,3.07
2022-10-06T05:28:52.361Z,3.57
2022-10-06T05:31:26.896Z,3.17
2022-10-06T05:33:54.900Z,3.10
2022-10-06T05:36:24.099Z,2.27
2022-10-06T05:38:51.078Z,2.63
2022-10-06T05:41:21.120Z,2.70
2022-10-06T05:43:48.380Z,2.33
2022-10-06T05:46:28.167Z,2.67
2022-10-06T05:49:04.141Z,3.00
2022-10-06T05:51:32.867Z,2.60
2022-10-06T05:56:41.537Z,3.00
2022-10-06T05:59:08.425Z,3.10
2022-10-06T06:01:41.304Z,2.50
2022-10-06T06:04:10.989Z,2.80
2022-10-06T06:06:37.893Z,3.07
2022-10-06T06:09:09.397Z,3.13
2022-10-06T06:11:38.469Z,2.47
2022-10-06T06:14:07.831Z,3.33
2022-10-06T06:16:37.153Z,3.43
2022-10-06T06:19:04.097Z,3.40
2022-10-06T06:21:33.027Z,2.93
2022-10-06T06:24:00.113Z,2.90
2022-10-06T06:26:32.196Z,3.03
2022-10-06T06:29:02.770Z,2.77
2022-10-06T06:31:32.182Z,2.83
2022-10-06T06:34:01.625Z,2.70
2022-10-06T06:36:36.035Z,2.53
2022-10-06T06:39:08.373Z,3.10
2022-10-06T06:41:38.371Z,2.77
2022-10-06T06:44:08.129Z,3.03
2022-10-06T06:49:06.600Z,3.17
2022-10-06T06:51:35.893Z,2.37
2022-10-06T06:54:03.693Z,2.50
2022-10-06T06:56:39.119Z,3.40
2022-10-06T06:59:13.423Z,3.00
2022-10-06T07:01:47.367Z,2.80
2022-10-06T07:04:16.580Z,2.73
2022-10-06T07:06:57.279Z,3.27
2022-10-06T07:09:26.233Z,2.90
2022-10-06T07:11:53.287Z,2.90
2022-10-06T07:14:22.595Z,3.40
2022-10-06T07:17:08.137Z,2.20
2022-10-06T07:19:58.020Z,2.50
2022-10-06T07:22:46.873Z,2.20
2022-10-06T07:25:26.254Z,2.60
2022-10-06T07:27:53.889Z,3.37
2022-10-06T07:30:26.239Z,2.90
2022-10-06T07:32:54.177Z,2.80
2022-10-06T07:35:25.693Z,3.10
2022-10-06T07:37:53.647Z,2.83
2022-10-06T07:40:20.659Z,2.87
2022-10-06T07:42:52.297Z,2.50
2022-10-06T07:45:41.774Z,3.00
2022-10-06T07:48:14.756Z,3.47
2022-10-06T07:50:43.584Z,2.47
2022-10-06T07:53:10.694Z,2.97
2022-10-06T07:55:40.321Z,2.70
2022-10-06T07:58:18.456Z,3.20
2022-10-06T08:00:46.896Z,2.93
2022-10-06T08:03:18.263Z,2.80
2022-10-06T08:05:56.722Z,3.27
2022-10-06T08:08:24.191Z,2.97
2022-10-06T08:10:56.386Z,3.00
2022-10-06T08:13:25.019Z,3.20
2022-10-06T08:15:54.880Z,2.73
2022-10-06T08:18:44.411Z,2.60
2022-10-06T08:21:14.894Z,3.00
2022-10-06T08:23:43.655Z,2.60
2022-10-06T08:26:14.904Z,2.63
2022-10-06T08:28:46.081Z,2.80
2022-10-06T08:31:15.759Z,2.43
2022-10-06T08:33:44.599Z,2.93
2022-10-06T08:38:51.367Z,3.10
2022-10-06T08:41:26.841Z,2.77
2022-10-06T08:44:05.584Z,3.38
2022-10-06T08:46:52.033Z,2.57
2022-10-06T08:49:22.297Z,3.40
2022-10-06T08:52:18.030Z,3.00
2022-10-06T08:55:09.065Z,3.88
2022-10-06T08:57:42.226Z,2.63
2022-10-06T09:00:19.556Z,2.73
2022-10-06T09:02:51.185Z,2.53
2022-10-06T09:05:31.369Z,2.70
2022-10-06T09:08:19.797Z,2.97
2022-10-06T09:11:07.042Z,2.97
2022-10-06T09:13:53.432Z,2.93
2022-10-06T09:16:28.841Z,2.77
2022-10-06T09:19:14.289Z,2.63
2022-10-06T09:21:46.913Z,3.00
2022-10-06T09:24:17.361Z,2.43
2022-10-06T09:26:49.893Z,3.00
2022-10-06T09:29:18.207Z,2.80
2022-10-06T09:32:06.832Z,2.90
2022-10-06T09:35:05.157Z,2.83
2022-10-06T09:38:12.737Z,2.40
2022-10-06T09:40:54.853Z,2.73
2022-10-06T09:43:58.666Z,2.90
2022-10-06T09:46:45.761Z,2.70
2022-10-06T09:49:31.675Z,2.27
2022-10-06T09:52:16.652Z,2.30
2022-10-06T09:55:03.036Z,2.57
2022-10-06T09:57:32.221Z,2.60
2022-10-06T10:00:00.204Z,2.57
2022-10-06T10:02:33.997Z,2.57
2022-10-06T10:05:03.585Z,2.57
2022-10-06T10:07:31.366Z,2.50
2022-10-06T10:10:24.866Z,2.73
2022-10-06T10:13:00.853Z,2.30
2022-10-06T10:15:31.525Z,2.80
2022-10-06T10:18:14.361Z,2.63
2022-10-06T10:20:53.455Z,2.37
2022-10-06T10:23:33.603Z,2.80
2022-10-06T10:26:00.686Z,2.93
2022-10-06T10:28:53.919Z,2.40
2022-10-06T10:31:49.287Z,2.70
2022-10-06T10:34:49.887Z,2.83
2022-10-06T10:37:24.459Z,2.77
2022-10-06T10:40:32.076Z,2.60
2022-10-06T10:43:24.263Z,2.83
2022-10-06T10:46:10.663Z,2.43
2022-10-06T10:48:46.929Z,2.20
2022-10-06T10:51:33.199Z,2.40
2022-10-06T10:54:26.512Z,2.50
2022-10-06T10:56:54.373Z,2.83
2022-10-06T11:00:04.119Z,2.70
2022-10-06T11:51:31.119Z,2.27
2022-10-06T11:54:02.241Z,2.10
2022-10-06T11:56:39.476Z,2.20
2022-10-06T11:59:25.273Z,2.33
2022-10-06T12:01:56.143Z,2.10
2022-10-06T12:04:26.377Z,2.47
2022-10-06T12:06:58.757Z,1.97
2022-10-06T12:09:44.786Z,2.37
2022-10-06T12:12:20.325Z,2.33
2022-10-06T12:18:08.946Z,2.30
2022-10-06T12:21:06.902Z,2.20
2022-10-06T12:23:45.887Z,2.43
2022-10-06T12:26:40.691Z,2.00
2022-10-06T12:29:39.186Z,2.70
2022-10-06T12:32:18.175Z,2.00
2022-10-06T12:35:04.118Z,2.00
2022-10-06T12:38:16.159Z,2.17
2022-10-06T12:40:48.462Z,2.03
2022-10-06T12:43:18.330Z,1.77
2022-10-06T12:45:57.436Z,2.23
2022-10-06T12:48:57.992Z,1.90
2022-10-06T12:51:41.172Z,2.00
2022-10-06T12:54:25.801Z,2.20
2022-10-06T12:57:20.348Z,1.90
2022-10-06T12:59:50.174Z,2.43
2022-10-06T13:03:13.217Z,2.53
2022-10-06T13:05:43.361Z,2.03
2022-10-06T13:15:29.439Z,1.83
2022-10-06T13:18:11.304Z,1.70
2022-10-06T13:20:41.885Z,1.87
2022-10-06T13:23:23.933Z,1.83
2022-10-06T13:28:42.854Z,2.20
2022-10-06T13:31:32.366Z,2.70
2022-10-06T13:34:24.386Z,3.67
2022-10-06T13:36:52.441Z,2.80
2022-10-06T13:39:45.495Z,2.20
2022-10-06T13:42:18.677Z,2.90
2022-10-06T13:45:01.804Z,3.23
2022-10-06T13:47:31.031Z,1.97
2022-10-06T13:50:02.980Z,2.77
2022-10-06T13:52:44.058Z,2.10
2022-10-06T13:55:30.851Z,2.00
2022-10-06T13:58:01.974Z,2.40
2022-10-06T16:51:07.823Z,3.07
2022-10-06T16:53:38.690Z,3.28
2022-10-06T16:56:10.983Z,3.28
2022-10-06T16:58:43.397Z,3.03
2022-10-06T17:01:15.987Z,2.73
2022-10-06T17:03:45.486Z,2.00
2022-10-06T17:06:16.164Z,2.37
2022-10-06T18:40:34.650Z,9.83
2022-10-06T18:43:01.555Z,6.83
2022-10-06T18:45:48.907Z,6.00
2022-10-06T18:48:34.358Z,6.03
2022-10-06T18:51:02.192Z,6.90
2022-10-06T18:53:55.044Z,4.03
2022-10-06T18:56:36.247Z,4.53
2022-10-06T18:59:51.642Z,4.53
2022-10-06T19:02:21.219Z,5.00
2022-10-06T19:04:48.788Z,5.03
2022-10-06T19:07:29.417Z,4.40
2022-10-06T19:10:03.881Z,4.13
2022-10-06T19:12:35.928Z,4.27
2022-10-06T19:15:03.366Z,4.47
2022-10-06T19:17:30.507Z,4.40
2022-10-06T19:19:59.837Z,3.97
2022-10-06T19:22:26.761Z,3.90
2022-10-06T19:24:53.826Z,3.93
2022-10-06T19:27:31.833Z,3.67
2022-10-06T19:29:59.226Z,3.97
2022-10-06T19:32:33.880Z,5.90
2022-10-06T19:35:01.072Z,6.30
2022-10-06T19:37:30.162Z,4.77
2022-10-06T19:39:57.214Z,6.27
2022-10-06T19:42:45.745Z,5.77
2022-10-06T19:45:17.679Z,4.97
2022-10-06T19:47:45.747Z,4.60
2022-10-06T19:50:19.765Z,3.97
2022-10-06T19:52:46.873Z,3.90
2022-10-06T19:55:14.373Z,4.23
2022-10-06T19:57:41.908Z,3.80
2022-10-06T20:00:10.407Z,3.83
2022-10-06T20:02:41.988Z,4.40
2022-10-06T20:05:11.290Z,4.00
2022-10-06T20:07:38.757Z,4.30
2022-10-06T20:10:06.074Z,6.37
2022-10-06T20:12:35.173Z,7.37
2022-10-06T20:15:02.239Z,5.47
2022-10-06T20:17:32.155Z,5.03
2022-10-06T20:19:59.509Z,5.27
2022-10-06T20:22:27.137Z,4.97
2022-10-06T20:24:54.290Z,3.97
2022-10-06T20:27:21.705Z,4.03
2022-10-06T20:29:48.877Z,3.90
2022-10-06T20:32:15.843Z,4.00
2022-10-06T20:34:42.815Z,3.70
2022-10-06T23:19:23.327Z,4.47
2022-10-06T23:22:00.305Z,4.27
2022-10-06T23:24:28.471Z,4.00
2022-10-06T23:27:06.470Z,4.63
2022-10-06T23:32:40.095Z,4.20
2022-10-06T23:35:25.075Z,4.50
2022-10-06T23:37:52.504Z,3.90
2022-10-06T23:40:19.955Z,3.83
